Time;durP1;ratioP1;P1;durP2;ratioP2;P2;SDS_P1;SDS_P2;PMS_P1;PMS_P2;Temp;Humidity;BMP_temperature;BMP_pressure;BME280_temperature;BME280_humidity;BME280_pressure;Samples;Min_cycle;Max_cycle;Signal;HPM_P1;HPM_P2
2021/01/18 00:00:07;;;;;;;23.85;10.95;;;3.70;99.90;;;;;;5027639;28;20427;-76
2021/01/18 00:02:33;;;;;;;23.40;10.98;;;3.60;99.90;;;;;;5030183;28;20112;-76
2021/01/18 00:04:59;;;;;;;23.50;10.88;;;3.50;99.90;;;;;;5023685;28;20641;-77
2021/01/18 00:07:24;;;;;;;23.33;10.85;;;3.40;99.90;;;;;;5025452;28;20543;-75
2021/01/18 00:09:50;;;;;;;29.17;12.25;;;3.40;99.90;;;;;;5021520;28;20041;-75
2021/01/18 00:12:15;;;;;;;28.48;11.27;;;3.40;99.90;;;;;;5023423;28;20130;-75
2021/01/18 00:14:41;;;;;;;25.35;10.02;;;3.30;99.90;;;;;;5024482;28;20041;-75
2021/01/18 00:17:07;;;;;;;32.15;11.98;;;3.30;99.90;;;;;;5027160;28;20499;-75
2021/01/18 00:19:32;;;;;;;25.33;11.00;;;3.30;99.90;;;;;;5018594;28;20144;-76
2021/01/18 00:21:58;;;;;;;29.35;12.43;;;3.30;99.90;;;;;;5021601;28;20084;-75
2021/01/18 00:24:24;;;;;;;28.63;11.95;;;3.30;99.90;;;;;;5022071;28;20324;-75
2021/01/18 00:26:49;;;;;;;25.55;11.52;;;3.30;99.90;;;;;;5028802;28;20045;-76
2021/01/18 00:29:15;;;;;;;25.48;11.55;;;3.20;99.90;;;;;;5023203;28;20042;-75
2021/01/18 00:31:42;;;;;;;32.60;12.55;;;3.20;99.90;;;;;;5026915;28;20037;-75
2021/01/18 00:34:08;;;;;;;25.15;11.48;;;3.20;99.90;;;;;;5016739;28;20037;-75
2021/01/18 00:36:34;;;;;;;30.63;12.13;;;3.20;99.90;;;;;;5025799;28;20619;-76
2021/01/18 00:38:59;;;;;;;28.05;12.13;;;3.20;99.90;;;;;;5018800;28;20048;-75
2021/01/18 00:41:25;;;;;;;25.80;11.88;;;3.20;99.90;;;;;;5020899;28;20053;-75
2021/01/18 00:43:51;;;;;;;26.92;10.55;;;3.30;99.90;;;;;;5025054;28;20163;-75
2021/01/18 00:46:20;;;;;;;28.25;11.13;;;3.20;99.90;;;;;;5022110;28;20048;-75
2021/01/18 00:48:46;;;;;;;26.35;10.73;;;3.20;99.90;;;;;;5019705;28;20042;-76
2021/01/18 00:51:12;;;;;;;30.33;11.13;;;3.20;99.90;;;;;;5017514;28;20033;-75
2021/01/18 00:53:38;;;;;;;22.63;11.13;;;3.10;99.90;;;;;;5021780;28;20036;-76
2021/01/18 00:56:04;;;;;;;26.33;11.00;;;3.10;99.90;;;;;;5023465;28;20025;-75
2021/01/18 00:58:30;;;;;;;23.52;11.52;;;3.10;99.90;;;;;;5021772;28;20763;-75
2021/01/18 01:00:56;;;;;;;19.70;10.27;;;3.10;99.90;;;;;;5003902;28;20072;-75
2021/01/18 01:03:22;;;;;;;27.33;10.80;;;3.10;99.90;;;;;;5022574;28;20033;-76
2021/01/18 01:05:48;;;;;;;23.85;10.02;;;3.10;99.90;;;;;;5020000;28;20046;-75
2021/01/18 01:08:13;;;;;;;25.38;9.95;;;3.10;99.90;;;;;;5017455;28;20204;-77
2021/01/18 01:10:39;;;;;;;23.13;9.68;;;3.10;99.90;;;;;;5022871;28;20025;-75
2021/01/18 01:13:07;;;;;;;25.00;9.68;;;3.10;99.90;;;;;;5017620;28;20037;-76
2021/01/18 01:15:34;;;;;;;22.10;8.95;;;3.20;99.90;;;;;;5015111;28;20074;-75
2021/01/18 01:18:00;;;;;;;25.27;9.13;;;3.20;99.90;;;;;;5011889;28;20041;-75
2021/01/18 01:20:26;;;;;;;21.73;9.57;;;3.20;99.90;;;;;;5022316;28;20116;-76
2021/01/18 01:22:52;;;;;;;22.90;9.10;;;3.20;99.90;;;;;;5027295;28;20120;-77
2021/01/18 01:25:21;;;;;;;19.92;8.57;;;3.20;99.90;;;;;;5025151;28;20144;-75
2021/01/18 01:27:47;;;;;;;21.40;9.00;;;3.20;99.90;;;;;;5022401;28;20041;-77
2021/01/18 01:30:21;;;;;;;17.15;8.70;;;3.20;99.90;;;;;;5016219;28;20462;-77
2021/01/18 01:32:49;;;;;;;18.85;8.93;;;3.20;99.90;;;;;;5018711;28;20596;-75
2021/01/18 01:35:16;;;;;;;26.67;9.88;;;3.20;99.90;;;;;;5023184;28;20423;-76
2021/01/18 01:37:42;;;;;;;19.17;8.82;;;3.20;99.90;;;;;;5019225;28;20151;-75
2021/01/18 01:40:11;;;;;;;21.25;8.57;;;3.20;99.90;;;;;;5026052;28;20073;-76
2021/01/18 01:42:37;;;;;;;21.02;8.68;;;3.20;99.90;;;;;;5025244;28;20095;-76
2021/01/18 01:45:07;;;;;;;23.70;9.07;;;3.20;99.90;;;;;;5025866;28;20038;-78
2021/01/18 01:47:37;;;;;;;21.45;8.82;;;3.20;99.90;;;;;;5019392;28;20034;-76
2021/01/18 01:50:23;;;;;;;22.65;8.30;;;3.20;99.90;;;;;;4997368;28;600293;-77
2021/01/18 01:52:56;;;;;;;17.67;8.23;;;3.20;99.90;;;;;;5023490;28;20079;-77
2021/01/18 01:55:32;;;;;;;22.55;9.43;;;3.20;99.90;;;;;;5023369;28;20108;-76
2021/01/18 01:58:01;;;;;;;21.38;8.93;;;3.20;99.90;;;;;;5025543;28;20046;-76
2021/01/18 02:00:37;;;;;;;23.25;9.25;;;3.20;99.90;;;;;;5021967;28;20053;-77
2021/01/18 02:03:26;;;;;;;21.13;8.73;;;3.20;99.90;;;;;;5028213;28;20128;-76
2021/01/18 02:05:53;;;;;;;19.02;8.27;;;3.20;99.90;;;;;;5023611;28;20045;-75
2021/01/18 02:08:20;;;;;;;19.33;8.35;;;3.20;99.90;;;;;;5025248;28;20052;-75
2021/01/18 02:10:46;;;;;;;23.20;9.00;;;3.10;99.90;;;;;;5026296;28;20037;-75
2021/01/18 02:13:17;;;;;;;20.92;8.10;;;3.20;99.90;;;;;;5023674;28;20037;-74
2021/01/18 02:16:03;;;;;;;23.15;8.63;;;3.10;99.90;;;;;;5019071;28;20079;-75
2021/01/18 02:19:10;;;;;;;17.95;7.85;;;3.10;99.90;;;;;;5018290;28;20045;-75
2021/01/18 02:22:13;;;;;;;19.27;7.80;;;3.20;99.90;;;;;;5024318;28;20094;-76
2021/01/18 02:24:52;;;;;;;19.80;7.65;;;3.20;99.90;;;;;;5024143;28;20407;-75
2021/01/18 02:27:51;;;;;;;18.67;7.55;;;3.20;99.90;;;;;;5026515;28;20049;-76
2021/01/18 02:30:28;;;;;;;19.17;7.13;;;3.20;99.90;;;;;;5018233;28;20048;-75
2021/01/18 02:33:25;;;;;;;19.42;7.70;;;3.20;99.90;;;;;;5019719;28;20620;-76
2021/01/18 02:36:25;;;;;;;23.90;7.10;;;3.20;99.90;;;;;;5019572;28;20327;-76
2021/01/18 02:39:14;;;;;;;19.80;7.13;;;3.20;99.90;;;;;;5001674;28;20048;-75
2021/01/18 02:41:39;;;;;;;17.38;7.22;;;3.20;99.90;;;;;;5023675;28;20288;-77
2021/01/18 02:44:11;;;;;;;21.15;8.25;;;3.20;99.90;;;;;;5026559;28;20045;-75
2021/01/18 02:46:38;;;;;;;18.45;7.75;;;3.20;99.90;;;;;;5018711;28;20176;-76
2021/01/18 02:49:05;;;;;;;19.23;7.90;;;3.20;99.90;;;;;;5021996;28;20038;-77
2021/01/18 02:51:34;;;;;;;17.65;7.75;;;3.20;99.90;;;;;;5025623;28;20032;-76
2021/01/18 02:54:01;;;;;;;17.77;7.85;;;3.20;99.90;;;;;;5020029;28;20079;-75
2021/01/18 02:56:35;;;;;;;18.02;8.02;;;3.90;99.90;;;;;;5024326;28;20038;-76
2021/01/18 02:59:03;;;;;;;17.48;8.38;;;3.10;99.90;;;;;;5018588;28;20391;-75
2021/01/18 03:01:34;;;;;;;20.42;8.00;;;3.10;99.90;;;;;;5022355;28;20033;-76
2021/01/18 03:04:12;;;;;;;16.48;7.40;;;3.10;99.90;;;;;;5018538;28;20045;-76
2021/01/18 03:06:56;;;;;;;16.00;7.68;;;3.20;99.90;;;;;;5028417;28;20040;-76
2021/01/18 03:09:30;;;;;;;18.15;8.02;;;3.20;99.90;;;;;;5028564;28;20400;-76
2021/01/18 03:12:04;;;;;;;16.45;8.05;;;3.30;99.90;;;;;;5028801;28;20565;-76
2021/01/18 03:14:36;;;;;;;23.15;8.23;;;2.90;99.90;;;;;;5029104;28;20026;-76
2021/01/18 03:17:04;;;;;;;19.52;7.55;;;3.20;99.90;;;;;;5029468;28;20534;-75
2021/01/18 03:19:40;;;;;;;13.95;7.53;;;3.20;99.90;;;;;;5029930;28;20042;-76
2021/01/18 03:22:07;;;;;;;18.08;7.75;;;3.20;99.90;;;;;;5019967;28;20061;-76
2021/01/18 03:24:33;;;;;;;19.52;7.13;;;3.10;99.90;;;;;;5027392;28;20039;-77
2021/01/18 03:27:03;;;;;;;15.98;7.60;;;3.10;99.90;;;;;;5028093;28;20042;-76
2021/01/18 03:29:29;;;;;;;16.60;7.65;;;3.20;99.90;;;;;;5021762;28;20045;-77
2021/01/18 03:31:56;;;;;;;19.25;8.05;;;3.10;99.90;;;;;;5025004;28;20053;-76
2021/01/18 03:34:22;;;;;;;21.63;8.15;;;3.10;99.90;;;;;;5026649;28;20049;-75
2021/01/18 03:36:48;;;;;;;20.73;7.22;;;3.10;99.90;;;;;;5025542;28;20033;-76
2021/01/18 03:39:13;;;;;;;21.08;8.30;;;3.10;99.90;;;;;;5027600;28;20068;-76
2021/01/18 03:41:39;;;;;;;23.08;7.95;;;3.10;99.90;;;;;;5021259;28;20204;-76
2021/01/18 03:44:05;;;;;;;23.65;7.72;;;3.10;99.90;;;;;;5022328;28;20514;-76
2021/01/18 03:46:30;;;;;;;20.05;7.25;;;3.10;99.90;;;;;;4992875;28;20053;-76
2021/01/18 03:48:56;;;;;;;17.13;7.47;;;3.00;99.90;;;;;;5027032;28;20034;-76
2021/01/18 03:51:28;;;;;;;16.08;7.07;;;3.00;99.90;;;;;;5025564;28;20045;-76
2021/01/18 03:53:54;;;;;;;18.35;7.00;;;3.00;99.90;;;;;;5027904;28;20188;-75
2021/01/18 03:56:20;;;;;;;19.10;7.22;;;3.10;99.90;;;;;;5023753;28;20120;-75
2021/01/18 03:58:46;;;;;;;18.80;7.20;;;3.10;99.90;;;;;;5028863;28;20046;-76
2021/01/18 04:01:12;;;;;;;16.73;7.18;;;3.10;99.90;;;;;;5021977;28;20087;-76
2021/01/18 04:03:38;;;;;;;20.60;8.00;;;3.00;99.90;;;;;;5017421;28;20080;-76
2021/01/18 04:06:03;;;;;;;16.10;7.10;;;3.10;99.90;;;;;;5025673;28;20487;-77
2021/01/18 04:08:29;;;;;;;20.98;7.95;;;3.10;99.90;;;;;;5023950;28;20048;-76
2021/01/18 04:10:54;;;;;;;16.27;6.40;;;3.10;99.90;;;;;;5029146;28;20048;-75
2021/01/18 04:13:20;;;;;;;18.13;7.35;;;3.10;99.90;;;;;;5008158;28;20044;-75
2021/01/18 04:15:45;;;;;;;15.15;6.80;;;3.20;99.90;;;;;;5025966;28;20272;-76
2021/01/18 04:18:11;;;;;;;20.67;7.68;;;3.20;99.90;;;;;;5002706;28;20152;-76
2021/01/18 04:20:37;;;;;;;16.25;7.20;;;3.20;99.90;;;;;;5024230;28;20068;-76
2021/01/18 04:23:04;;;;;;;18.85;7.22;;;3.20;99.90;;;;;;5017572;28;20052;-76
2021/01/18 04:25:30;;;;;;;17.75;7.00;;;3.20;99.90;;;;;;5024081;28;20059;-76
2021/01/18 04:28:05;;;;;;;18.38;7.20;;;3.30;99.90;;;;;;5008871;28;20419;-76
2021/01/18 04:30:36;;;;;;;21.45;7.05;;;3.30;99.90;;;;;;5016727;28;20064;-75
2021/01/18 04:33:06;;;;;;;14.88;6.70;;;3.30;99.90;;;;;;5025587;28;20042;-76
2021/01/18 04:35:37;;;;;;;19.38;9.27;;;3.30;99.90;;;;;;5019981;28;20144;-75
2021/01/18 04:38:03;;;;;;;15.30;6.93;;;3.30;99.90;;;;;;5019057;28;20091;-77
2021/01/18 04:40:31;;;;;;;16.98;7.40;;;3.30;99.90;;;;;;5028047;28;20040;-76
2021/01/18 04:42:56;;;;;;;15.93;6.78;;;3.30;99.90;;;;;;5013104;28;20500;-76
2021/01/18 04:45:25;;;;;;;17.90;7.07;;;3.30;99.90;;;;;;5025980;28;20464;-75
2021/01/18 04:47:55;;;;;;;20.45;7.65;;;3.30;99.90;;;;;;5019108;28;20049;-76
2021/01/18 04:50:23;;;;;;;16.77;6.97;;;3.20;99.90;;;;;;5026191;28;20041;-76
2021/01/18 04:52:54;;;;;;;19.73;7.85;;;3.20;99.90;;;;;;5018588;28;20096;-75
2021/01/18 04:55:26;;;;;;;15.88;7.10;;;3.20;99.90;;;;;;5016353;28;20483;-75
2021/01/18 04:58:12;;;;;;;21.08;7.38;;;3.20;99.90;;;;;;5012638;28;20045;-76
2021/01/18 05:00:48;;;;;;;18.73;7.03;;;3.20;99.90;;;;;;5020050;28;20037;-76
2021/01/18 05:03:26;;;;;;;17.63;6.88;;;3.30;99.90;;;;;;5033634;28;20041;-76
2021/01/18 05:05:52;;;;;;;20.38;7.15;;;3.10;99.90;;;;;;5028070;28;20606;-76
2021/01/18 05:08:39;;;;;;;16.27;7.30;;;3.20;99.90;;;;;;5023083;28;20028;-77
2021/01/18 05:11:05;;;;;;;17.40;7.18;;;3.20;99.90;;;;;;5025413;28;20067;-75
2021/01/18 05:13:31;;;;;;;15.88;7.60;;;3.20;99.90;;;;;;5023634;28;20034;-76
2021/01/18 05:15:59;;;;;;;13.88;7.47;;;3.20;99.90;;;;;;5025123;28;20026;-76
2021/01/18 05:18:32;;;;;;;19.45;7.10;;;3.10;99.90;;;;;;5012027;28;20034;-75
2021/01/18 05:21:03;;;;;;;19.92;7.53;;;3.20;99.90;;;;;;5020888;28;20079;-77
2021/01/18 05:23:28;;;;;;;23.42;7.75;;;3.20;99.90;;;;;;5014986;28;20083;-75
2021/01/18 05:26:17;;;;;;;16.88;7.70;;;3.20;99.90;;;;;;4996758;28;20065;-74
2021/01/18 05:28:51;;;;;;;13.63;7.45;;;3.20;99.90;;;;;;5021095;28;20049;-77
2021/01/18 05:31:43;;;;;;;20.77;7.40;;;3.30;99.90;;;;;;5024705;28;20559;-75
2021/01/18 05:34:14;;;;;;;16.13;7.38;;;3.30;99.90;;;;;;5022738;28;20036;-77
2021/01/18 05:36:44;;;;;;;18.65;7.43;;;3.30;99.90;;;;;;5025625;28;20037;-76
2021/01/18 05:39:18;;;;;;;14.57;7.53;;;3.80;99.90;;;;;;5025632;28;20055;-76
2021/01/18 05:41:49;;;;;;;16.60;7.40;;;3.30;99.90;;;;;;5022219;28;20167;-75
2021/01/18 05:44:15;;;;;;;15.73;6.32;;;3.20;99.90;;;;;;5022836;28;20045;-76
2021/01/18 05:46:44;;;;;;;18.33;6.43;;;3.30;99.90;;;;;;5026315;28;20029;-75
2021/01/18 05:49:12;;;;;;;17.48;7.15;;;3.20;99.90;;;;;;5021980;28;20037;-76
2021/01/18 05:51:39;;;;;;;21.17;7.25;;;3.30;99.90;;;;;;5013117;28;20411;-74
2021/01/18 05:54:06;;;;;;;19.90;6.85;;;3.30;99.90;;;;;;5021390;28;20026;-76
2021/01/18 05:56:43;;;;;;;15.77;6.93;;;3.20;99.90;;;;;;5025135;28;20021;-75
2021/01/18 05:59:17;;;;;;;16.90;6.75;;;3.20;99.90;;;;;;5038591;28;20065;-75
2021/01/18 06:01:43;;;;;;;18.45;7.82;;;3.20;99.90;;;;;;5031922;28;20045;-76
2021/01/18 06:04:10;;;;;;;20.90;7.28;;;3.20;99.90;;;;;;5025030;28;20617;-76
2021/01/18 06:06:36;;;;;;;13.95;6.47;;;3.20;99.90;;;;;;5039481;28;20079;-76
2021/01/18 06:09:04;;;;;;;15.43;7.60;;;3.20;99.90;;;;;;5024283;28;20084;-75
2021/01/18 06:11:30;;;;;;;19.58;7.65;;;3.20;99.90;;;;;;5022311;28;20038;-75
2021/01/18 06:14:04;;;;;;;16.20;7.55;;;3.30;99.90;;;;;;5017794;28;20045;-75
2021/01/18 06:16:31;;;;;;;25.77;8.27;;;3.30;99.90;;;;;;5025564;28;20060;-76
2021/01/18 06:19:08;;;;;;;19.67;8.13;;;3.30;99.90;;;;;;5023845;28;20041;-75
2021/01/18 06:21:35;;;;;;;18.42;7.28;;;3.20;99.90;;;;;;5029431;28;20041;-74
2021/01/18 06:24:27;;;;;;;14.73;7.55;;;3.30;99.90;;;;;;5025897;28;20120;-75
2021/01/18 06:26:54;;;;;;;16.95;6.95;;;3.30;99.90;;;;;;5028305;28;20060;-76
2021/01/18 06:29:36;;;;;;;21.90;7.20;;;3.30;99.90;;;;;;5023855;28;20144;-75
2021/01/18 06:32:03;;;;;;;16.02;7.30;;;3.30;99.90;;;;;;5030401;28;20035;-75
2021/01/18 06:34:30;;;;;;;18.45;6.55;;;3.30;99.90;;;;;;5028492;28;20021;-75
2021/01/18 06:36:56;;;;;;;21.50;6.65;;;3.30;99.90;;;;;;5023871;28;20299;-76
2021/01/18 06:39:26;;;;;;;14.18;7.55;;;3.30;99.90;;;;;;5028509;28;20029;-75
2021/01/18 06:42:00;;;;;;;17.57;7.00;;;3.40;99.90;;;;;;5020292;28;20037;-75
2021/01/18 06:44:33;;;;;;;18.58;6.93;;;3.40;99.90;;;;;;5022268;28;20067;-76
2021/01/18 06:46:59;;;;;;;16.48;6.90;;;3.40;99.90;;;;;;5023069;28;20080;-75
2021/01/18 06:49:26;;;;;;;14.82;6.43;;;3.40;99.90;;;;;;5027063;28;20523;-75
2021/01/18 06:51:57;;;;;;;16.05;6.72;;;3.40;99.90;;;;;;5020453;28;20037;-75
2021/01/18 06:54:27;;;;;;;17.10;7.00;;;3.30;99.90;;;;;;5018920;28;20473;-75
2021/01/18 06:57:07;;;;;;;13.30;7.43;;;3.40;99.90;;;;;;5027243;28;20069;-75
2021/01/18 06:59:50;;;;;;;19.95;7.85;;;3.30;99.90;;;;;;5020382;28;20037;-75
2021/01/18 07:02:23;;;;;;;17.15;7.57;;;3.30;99.90;;;;;;5017150;28;24466;-76
2021/01/18 07:04:50;;;;;;;21.42;8.05;;;3.30;99.90;;;;;;5008259;28;20062;-76
2021/01/18 07:07:31;;;;;;;17.20;7.70;;;3.30;99.90;;;;;;5019027;28;20029;-76
2021/01/18 07:09:59;;;;;;;13.48;8.27;;;3.30;99.90;;;;;;5023265;28;20508;-76
2021/01/18 07:12:27;;;;;;;18.88;8.30;;;3.20;99.90;;;;;;5007960;28;20045;-76
2021/01/18 07:14:56;;;;;;;22.77;9.88;;;3.30;99.90;;;;;;5021069;28;20103;-76
2021/01/18 07:17:31;;;;;;;20.38;7.80;;;3.20;99.90;;;;;;5022004;28;20474;-77
2021/01/18 07:20:03;;;;;;;30.80;10.15;;;3.20;99.90;;;;;;5016164;28;20041;-76
2021/01/18 07:23:07;;;;;;;18.38;8.07;;;3.10;99.90;;;;;;5026751;28;20038;-76
2021/01/18 07:25:37;;;;;;;24.38;8.50;;;3.10;99.90;;;;;;5024530;28;20065;-76
2021/01/18 07:28:05;;;;;;;22.58;8.75;;;3.20;99.90;;;;;;5019034;28;20052;-75
2021/01/18 07:30:35;;;;;;;18.08;8.85;;;3.20;99.90;;;;;;5007381;28;20554;-75
2021/01/18 07:33:13;;;;;;;20.65;7.75;;;3.20;99.90;;;;;;5020322;28;20049;-76
2021/01/18 07:35:40;;;;;;;19.45;7.63;;;3.30;99.90;;;;;;5020167;28;20462;-76
2021/01/18 07:38:13;;;;;;;20.80;7.97;;;3.30;99.90;;;;;;5037923;28;20033;-78
2021/01/18 07:40:40;;;;;;;15.32;7.38;;;3.30;99.90;;;;;;5024855;28;20036;-75
2021/01/18 07:43:07;;;;;;;16.92;8.48;;;3.30;99.90;;;;;;5017365;28;20045;-75
2021/01/18 07:45:35;;;;;;;20.15;7.75;;;3.30;99.90;;;;;;5016100;28;20445;-76
2021/01/18 07:48:01;;;;;;;18.80;8.52;;;3.30;99.90;;;;;;5019343;28;20455;-77
2021/01/18 07:50:32;;;;;;;20.05;8.57;;;3.30;99.90;;;;;;5019993;28;20116;-76
2021/01/18 07:52:58;;;;;;;17.20;8.63;;;3.30;99.90;;;;;;5027594;28;20088;-76
2021/01/18 07:55:25;;;;;;;17.23;8.15;;;3.30;99.90;;;;;;5027168;28;20099;-76
2021/01/18 07:57:50;;;;;;;19.90;7.82;;;3.30;99.90;;;;;;5021047;28;20090;-75
2021/01/18 08:00:19;;;;;;;13.40;7.43;;;3.40;99.90;;;;;;5024164;28;20045;-76
2021/01/18 08:02:46;;;;;;;18.05;7.85;;;3.40;99.90;;;;;;5032089;28;20033;-75
2021/01/18 08:05:34;;;;;;;22.33;8.00;;;3.40;99.90;;;;;;5019980;28;20080;-78
2021/01/18 08:08:04;;;;;;;19.00;7.97;;;3.40;99.90;;;;;;5027889;28;20045;-77
2021/01/18 08:11:02;;;;;;;20.65;8.48;;;3.40;99.90;;;;;;5020192;28;20491;-76
2021/01/18 08:13:32;;;;;;;19.05;7.97;;;3.40;99.90;;;;;;5020759;28;20034;-76
2021/01/18 08:16:20;;;;;;;19.75;7.57;;;3.30;99.90;;;;;;5026574;28;20035;-76
2021/01/18 08:19:12;;;;;;;17.70;7.50;;;3.40;99.90;;;;;;5025366;28;20042;-76
2021/01/18 08:21:41;;;;;;;15.63;7.82;;;3.40;99.90;;;;;;5021992;28;20030;-76
2021/01/18 08:24:22;;;;;;;16.30;7.82;;;3.40;99.90;;;;;;5023361;28;20124;-78
2021/01/18 08:27:12;;;;;;;15.85;7.22;;;3.40;99.90;;;;;;5024423;28;20033;-78
2021/01/18 08:29:51;;;;;;;19.73;7.65;;;3.40;99.90;;;;;;5020331;28;20124;-77
2021/01/18 08:32:25;;;;;;;14.57;7.20;;;3.40;99.90;;;;;;5015209;28;20143;-76
2021/01/18 08:34:59;;;;;;;21.33;7.85;;;3.50;99.90;;;;;;5020346;28;20043;-77
2021/01/18 08:37:26;;;;;;;15.45;6.97;;;3.50;99.90;;;;;;5023440;28;20119;-77
2021/01/18 08:40:01;;;;;;;13.15;6.55;;;3.60;99.90;;;;;;5030002;28;20048;-76
2021/01/18 08:42:30;;;;;;;20.27;6.65;;;3.60;99.90;;;;;;5015688;28;20195;-76
2021/01/18 08:45:08;;;;;;;14.98;6.70;;;3.60;99.90;;;;;;5026592;28;20029;-76
2021/01/18 08:47:40;;;;;;;21.77;7.07;;;3.70;99.90;;;;;;5002876;28;20045;-77
2021/01/18 08:50:26;;;;;;;14.80;6.55;;;3.70;99.90;;;;;;5018027;28;20122;-76
2021/01/18 08:53:21;;;;;;;15.57;6.70;;;3.70;99.90;;;;;;5024175;28;20029;-76
2021/01/18 08:55:52;;;;;;;13.30;5.85;;;3.70;99.90;;;;;;5022159;28;20056;-76
2021/01/18 08:58:31;;;;;;;14.77;6.97;;;3.70;99.90;;;;;;5021004;28;20099;-75
2021/01/18 09:01:01;;;;;;;16.10;6.55;;;3.70;99.90;;;;;;5014697;28;20230;-76
2021/01/18 09:03:28;;;;;;;15.70;6.30;;;3.80;99.90;;;;;;5020076;28;20060;-76
2021/01/18 09:05:55;;;;;;;16.20;7.13;;;3.70;99.90;;;;;;5021189;28;20494;-77
2021/01/18 09:08:23;;;;;;;16.33;5.88;;;3.80;99.90;;;;;;5021349;28;20565;-76
2021/01/18 09:10:59;;;;;;;14.05;6.38;;;3.80;99.90;;;;;;5020203;28;20033;-76
2021/01/18 09:13:27;;;;;;;16.40;5.90;;;3.80;99.90;;;;;;5019331;28;20510;-77
2021/01/18 09:15:55;;;;;;;12.38;5.72;;;3.80;99.90;;;;;;5021165;28;20592;-77
2021/01/18 09:18:22;;;;;;;14.90;6.25;;;3.90;99.90;;;;;;5018273;28;20296;-76
2021/01/18 09:20:49;;;;;;;12.38;6.00;;;3.70;99.90;;;;;;5021026;28;20064;-76
2021/01/18 09:23:16;;;;;;;15.93;6.00;;;3.80;99.90;;;;;;5021258;28;20037;-75
2021/01/18 09:25:42;;;;;;;11.45;5.43;;;3.80;99.90;;;;;;5021562;28;20467;-75
2021/01/18 09:28:14;;;;;;;12.10;5.50;;;4.10;99.90;;;;;;5003000;28;20057;-75
2021/01/18 09:30:43;;;;;;;14.80;6.13;;;3.80;99.90;;;;;;5022581;28;20163;-77
2021/01/18 09:33:11;;;;;;;11.95;5.25;;;3.90;99.90;;;;;;5018744;28;20163;-75
2021/01/18 09:35:41;;;;;;;23.23;6.05;;;3.90;99.90;;;;;;5020370;28;20578;-75
2021/01/18 09:38:09;;;;;;;14.43;5.75;;;4.00;99.90;;;;;;5025845;28;20049;-75
2021/01/18 09:40:37;;;;;;;13.65;5.50;;;4.00;99.90;;;;;;5023085;28;20522;-76
2021/01/18 09:43:04;;;;;;;12.45;6.15;;;4.00;99.90;;;;;;5015596;28;20091;-75
2021/01/18 09:45:30;;;;;;;18.13;5.60;;;4.00;99.90;;;;;;5012516;28;20514;-76
2021/01/18 09:48:15;;;;;;;12.85;5.45;;;4.00;99.90;;;;;;5019566;28;20536;-76
2021/01/18 09:50:41;;;;;;;12.00;5.53;;;4.00;99.90;;;;;;5013251;28;20103;-75
2021/01/18 09:53:11;;;;;;;16.05;6.18;;;4.00;99.90;;;;;;5019697;28;20076;-76
2021/01/18 09:55:39;;;;;;;12.68;5.35;;;4.10;99.90;;;;;;5015981;28;20184;-76
2021/01/18 09:58:13;;;;;;;12.98;5.03;;;4.20;99.90;;;;;;5019839;28;20041;-76
2021/01/18 10:00:42;;;;;;;13.32;5.32;;;4.20;99.90;;;;;;5024560;28;20116;-75
2021/01/18 10:03:09;;;;;;;11.55;5.22;;;4.20;99.90;;;;;;5017746;28;20090;-76
2021/01/18 10:05:39;;;;;;;14.95;5.70;;;4.10;99.90;;;;;;5023553;28;20471;-76
2021/01/18 10:08:28;;;;;;;12.05;5.70;;;4.10;99.90;;;;;;5024601;28;20077;-76
2021/01/18 10:10:53;;;;;;;12.00;5.13;;;4.20;99.90;;;;;;5027694;28;20044;-75
2021/01/18 10:13:23;;;;;;;11.98;5.45;;;4.20;99.90;;;;;;5003373;28;20273;-75
2021/01/18 10:15:49;;;;;;;11.23;5.10;;;4.30;99.90;;;;;;5028466;28;20025;-76
2021/01/18 10:18:28;;;;;;;9.45;4.90;;;4.40;99.90;;;;;;5030389;28;20045;-75
2021/01/18 10:20:54;;;;;;;11.43;4.50;;;4.40;99.90;;;;;;5032121;28;20910;-75
2021/01/18 10:23:20;;;;;;;14.15;5.30;;;4.50;99.90;;;;;;5025924;28;20038;-77
2021/01/18 10:25:46;;;;;;;13.05;5.35;;;4.50;99.90;;;;;;5022397;28;20077;-76
2021/01/18 10:28:19;;;;;;;11.82;4.75;;;4.50;99.90;;;;;;5006483;28;20069;-75
2021/01/18 10:30:45;;;;;;;14.45;4.97;;;5.10;99.90;;;;;;5022603;28;20026;-75
2021/01/18 10:33:18;;;;;;;12.57;4.93;;;4.50;99.90;;;;;;5022377;28;20096;-76
2021/01/18 10:35:46;;;;;;;15.63;5.53;;;4.50;99.90;;;;;;5020564;28;20060;-76
2021/01/18 10:38:16;;;;;;;9.32;4.80;;;4.50;99.90;;;;;;5021556;28;20036;-75
2021/01/18 10:40:45;;;;;;;12.25;4.47;;;4.40;99.90;;;;;;5019446;28;20076;-75
2021/01/18 10:43:12;;;;;;;15.25;5.70;;;4.60;99.90;;;;;;5019939;28;20038;-75
2021/01/18 10:45:42;;;;;;;8.95;4.47;;;4.70;99.90;;;;;;5023051;28;20025;-75
2021/01/18 10:48:09;;;;;;;8.90;4.20;;;4.80;99.90;;;;;;5039515;28;20041;-75
2021/01/18 10:50:35;;;;;;;11.10;4.80;;;4.70;99.90;;;;;;5015289;28;20044;-76
2021/01/18 10:53:04;;;;;;;11.50;4.03;;;4.80;99.90;;;;;;5024348;28;20403;-77
2021/01/18 10:55:30;;;;;;;10.55;4.35;;;4.90;99.90;;;;;;5024070;28;20107;-75
2021/01/18 10:57:55;;;;;;;15.38;4.65;;;4.90;99.90;;;;;;5023627;28;20037;-76
2021/01/18 11:00:28;;;;;;;19.50;4.78;;;4.80;99.90;;;;;;5023401;28;20149;-75
2021/01/18 11:03:01;;;;;;;9.02;3.50;;;4.90;99.90;;;;;;5025321;28;20126;-77
2021/01/18 11:05:29;;;;;;;10.00;4.00;;;5.00;99.90;;;;;;5041884;28;20183;-75
2021/01/18 11:07:55;;;;;;;13.30;3.42;;;5.20;99.90;;;;;;5022228;28;20357;-76
2021/01/18 11:10:24;;;;;;;14.38;3.42;;;5.20;99.90;;;;;;5028453;28;20041;-75
2021/01/18 11:13:02;;;;;;;10.18;3.47;;;5.40;99.90;;;;;;5019648;28;20148;-75
2021/01/18 11:15:35;;;;;;;8.85;3.20;;;5.30;99.90;;;;;;5020400;28;20021;-75
2021/01/18 11:18:01;;;;;;;9.05;3.13;;;5.40;99.90;;;;;;5020950;28;20033;-76
2021/01/18 11:20:30;;;;;;;8.18;3.50;;;5.30;99.90;;;;;;5020192;28;20060;-75
2021/01/18 11:22:56;;;;;;;7.28;3.15;;;5.30;99.90;;;;;;5044483;28;20061;-77
2021/01/18 11:25:23;;;;;;;8.98;3.80;;;5.40;99.90;;;;;;5006582;28;20470;-76
2021/01/18 11:27:48;;;;;;;9.13;3.65;;;5.50;99.90;;;;;;5019608;28;20422;-78
2021/01/18 11:30:14;;;;;;;10.55;3.78;;;5.40;99.90;;;;;;5019376;28;20034;-75
2021/01/18 11:32:41;;;;;;;9.80;3.45;;;5.40;99.90;;;;;;5022800;28;20037;-76
2021/01/18 11:35:12;;;;;;;11.93;3.78;;;5.40;99.90;;;;;;5021917;28;20487;-75
2021/01/18 11:37:38;;;;;;;7.80;3.10;;;5.40;99.90;;;;;;5026733;28;20076;-76
2021/01/18 11:40:07;;;;;;;10.70;3.55;;;5.30;99.90;;;;;;5023293;28;20435;-75
2021/01/18 11:42:35;;;;;;;8.00;3.33;;;5.30;99.90;;;;;;5022658;28;20052;-76
2021/01/18 11:45:04;;;;;;;8.43;3.13;;;5.30;99.90;;;;;;5015268;28;20022;-76
2021/01/18 11:47:38;;;;;;;8.60;3.83;;;5.40;99.90;;;;;;5022672;28;20073;-76
2021/01/18 11:50:09;;;;;;;8.00;3.40;;;5.30;99.90;;;;;;5017014;28;20037;-75
2021/01/18 11:52:46;;;;;;;9.93;3.22;;;5.40;99.90;;;;;;5025540;28;20029;-75
2021/01/18 11:55:14;;;;;;;10.85;3.80;;;5.60;99.90;;;;;;5021613;28;20124;-75
2021/01/18 11:57:41;;;;;;;7.88;3.55;;;5.60;99.90;;;;;;5022754;28;20044;-76
2021/01/18 12:00:08;;;;;;;9.65;3.60;;;5.60;99.90;;;;;;5018811;28;20054;-76
2021/01/18 12:02:34;;;;;;;6.80;3.13;;;5.50;99.90;;;;;;5021186;28;20037;-75
2021/01/18 12:05:00;;;;;;;8.43;3.60;;;5.50;99.90;;;;;;5023221;28;20030;-76
2021/01/18 12:07:28;;;;;;;11.75;3.90;;;5.50;99.90;;;;;;5030089;28;21035;-75
2021/01/18 12:09:53;;;;;;;8.75;3.70;;;5.60;99.90;;;;;;5021210;28;20067;-77
2021/01/18 12:12:19;;;;;;;11.18;3.72;;;5.40;99.90;;;;;;5027549;28;20032;-77
2021/01/18 12:14:46;;;;;;;11.32;3.75;;;5.50;99.90;;;;;;5018629;28;20038;-76
2021/01/18 12:17:14;;;;;;;9.85;4.05;;;5.60;99.90;;;;;;5018083;28;20037;-76
2021/01/18 12:19:44;;;;;;;11.68;4.00;;;5.70;99.90;;;;;;5024311;28;20065;-76
2021/01/18 12:22:10;;;;;;;9.07;3.78;;;5.50;99.90;;;;;;5002823;28;20443;-77
2021/01/18 12:24:36;;;;;;;11.88;3.92;;;5.50;99.90;;;;;;5018574;28;20235;-77
2021/01/18 12:27:02;;;;;;;11.73;3.78;;;5.70;99.90;;;;;;5016586;28;20136;-76
2021/01/18 12:29:28;;;;;;;13.23;4.60;;;5.70;99.90;;;;;;5018938;28;20042;-77
2021/01/18 12:31:56;;;;;;;9.80;3.75;;;5.80;99.70;;;;;;5020404;28;20030;-75
2021/01/18 12:34:21;;;;;;;9.55;3.90;;;5.70;99.90;;;;;;5012090;28;20491;-76
2021/01/18 12:36:54;;;;;;;10.60;3.80;;;5.80;99.40;;;;;;5015224;28;20045;-76
2021/01/18 12:39:20;;;;;;;8.07;3.30;;;5.70;99.90;;;;;;5032642;28;20447;-76
2021/01/18 12:41:46;;;;;;;10.10;3.53;;;5.90;99.60;;;;;;5021737;28;20038;-77
2021/01/18 12:44:11;;;;;;;9.07;3.63;;;5.80;99.40;;;;;;5016587;28;20064;-78
2021/01/18 12:46:37;;;;;;;6.00;3.13;;;5.80;99.20;;;;;;5015961;28;20079;-75
2021/01/18 12:49:03;;;;;;;9.32;3.50;;;5.90;99.10;;;;;;5017396;28;20042;-76
2021/01/18 12:51:29;;;;;;;10.98;3.55;;;6.00;99.00;;;;;;4999184;28;20135;-76
2021/01/18 12:53:54;;;;;;;9.55;3.85;;;6.00;98.30;;;;;;5001292;28;20045;-76
2021/01/18 12:56:25;;;;;;;10.02;3.70;;;5.90;98.40;;;;;;5035924;28;20044;-76
2021/01/18 12:58:52;;;;;;;8.07;3.30;;;5.90;98.90;;;;;;5023351;28;20255;-76
2021/01/18 13:01:18;;;;;;;6.22;3.25;;;5.90;98.60;;;;;;5019973;28;20029;-77
2021/01/18 13:03:45;;;;;;;7.68;3.20;;;6.00;98.60;;;;;;5021801;28;20048;-77